sensor_id;sensor_type;location;lat;lon;timestamp;pressure;altitude;pressure_sealevel;temperature;humidity
60055;BME280;45930;53.514;55.904;2022-08-26T00:00:06;53363.09;;;-149.77;45.52
60055;BME280;45930;53.514;55.904;2022-08-26T00:01:08;52661.22;;;-149.77;45.23
60055;BME280;45930;53.514;55.904;2022-08-26T00:02:09;51868.31;;;-149.77;44.77
60055;BME280;45930;53.514;55.904;2022-08-26T00:03:11;51347.03;;;-149.77;44.36
60055;BME280;45930;53.514;55.904;2022-08-26T00:04:13;51073.56;;;-149.77;44.05
60055;BME280;45930;53.514;55.904;2022-08-26T00:05:14;50978.44;;;-149.77;43.91
60055;BME280;45930;53.514;55.904;2022-08-26T00:06:15;50998.25;;;-149.77;43.87
60055;BME280;45930;53.514;55.904;2022-08-26T00:07:15;51063.66;;;-149.77;44.02
60055;BME280;45930;53.514;55.904;2022-08-26T00:08:18;51039.88;;;-149.77;44.08
60055;BME280;45930;53.514;55.904;2022-08-26T00:09:20;51091.41;;;-149.77;44.03
60055;BME280;45930;53.514;55.904;2022-08-26T00:10:20;51176.59;;;-149.77;44.25
60055;BME280;45930;53.514;55.904;2022-08-26T00:11:21;51341.09;;;-149.77;44.28
60055;BME280;45930;53.514;55.904;2022-08-26T00:12:22;51477.84;;;-149.77;44.54
60055;BME280;45930;53.514;55.904;2022-08-26T00:13:23;51739.47;;;-149.77;44.78
60055;BME280;45930;53.514;55.904;2022-08-26T00:14:24;52020.94;;;-149.77;44.91
60055;BME280;45930;53.514;55.904;2022-08-26T00:15:25;52306.38;;;-149.77;45.09
60055;BME280;45930;53.514;55.904;2022-08-26T00:16:27;52468.91;;;-149.77;45.19
60055;BME280;45930;53.514;55.904;2022-08-26T00:17:28;52696.91;;;-149.77;45.33
60055;BME280;45930;53.514;55.904;2022-08-26T00:18:30;52851.53;;;-149.77;45.36
60055;BME280;45930;53.514;55.904;2022-08-26T00:19:31;52817.84;;;-149.77;45.30
60055;BME280;45930;53.514;55.904;2022-08-26T00:20:32;52690.97;;;-149.77;45.36
60055;BME280;45930;53.514;55.904;2022-08-26T00:21:34;52702.84;;;-149.77;45.36
60055;BME280;45930;53.514;55.904;2022-08-26T00:22:35;52847.56;;;-149.77;45.28
60055;BME280;45930;53.514;55.904;2022-08-26T00:23:36;53232.22;;;-149.77;45.49
60055;BME280;45930;53.514;55.904;2022-08-26T00:24:36;53305.59;;;-149.77;45.52
60055;BME280;45930;53.514;55.904;2022-08-26T00:25:37;53482.06;;;-149.77;45.63
60055;BME280;45930;53.514;55.904;2022-08-26T00:26:39;53468.19;;;-149.77;45.68
60055;BME280;45930;53.514;55.904;2022-08-26T00:27:40;53307.56;;;-149.77;45.63
60055;BME280;45930;53.514;55.904;2022-08-26T00:28:43;53234.19;;;-149.77;45.50
60055;BME280;45930;53.514;55.904;2022-08-26T00:29:44;53230.25;;;-149.77;45.58
60055;BME280;45930;53.514;55.904;2022-08-26T00:30:45;53238.16;;;-149.77;45.56
60055;BME280;45930;53.514;55.904;2022-08-26T00:31:49;53361.09;;;-149.77;45.58
60055;BME280;45930;53.514;55.904;2022-08-26T00:32:51;53365.06;;;-149.77;45.58
60055;BME280;45930;53.514;55.904;2022-08-26T00:33:52;53400.75;;;-149.77;45.61
60055;BME280;45930;53.514;55.904;2022-08-26T00:34:52;53658.53;;;-149.77;45.75
60055;BME280;45930;53.514;55.904;2022-08-26T00:35:53;54071.03;;;-149.77;45.95
60055;BME280;45930;53.514;55.904;2022-08-26T00:36:54;54372.47;;;-149.77;46.03
60055;BME280;45930;53.514;55.904;2022-08-26T00:37:55;54439.91;;;-149.77;46.06
60055;BME280;45930;53.514;55.904;2022-08-26T00:38:57;54677.94;;;-149.77;46.15
60055;BME280;45930;53.514;55.904;2022-08-26T00:39:58;54324.88;;;-149.77;46.00
60055;BME280;45930;53.514;55.904;2022-08-26T00:40:59;54059.13;;;-149.77;45.97
60055;BME280;45930;53.514;55.904;2022-08-26T00:42:00;54322.91;;;-149.77;46.03
60055;BME280;45930;53.514;55.904;2022-08-26T00:43:02;54271.34;;;-149.77;46.04
60055;BME280;45930;53.514;55.904;2022-08-26T00:44:04;54051.19;;;-149.77;45.96
60055;BME280;45930;53.514;55.904;2022-08-26T00:45:05;54406.19;;;-149.77;46.07
60055;BME280;45930;53.514;55.904;2022-08-26T00:46:14;54378.44;;;-149.77;46.08
60055;BME280;45930;53.514;55.904;2022-08-26T00:47:23;53971.88;;;-149.77;45.96
60055;BME280;45930;53.514;55.904;2022-08-26T00:48:29;53553.44;;;-149.77;45.78
60055;BME280;45930;53.514;55.904;2022-08-26T00:49:36;52996.28;;;-149.77;45.43
60055;BME280;45930;53.514;55.904;2022-08-26T00:50:41;53012.13;;;-149.77;45.49
60055;BME280;45930;53.514;55.904;2022-08-26T00:51:50;53384.91;;;-149.77;45.68
60055;BME280;45930;53.514;55.904;2022-08-26T00:52:52;53743.81;;;-149.77;45.64
60055;BME280;45930;53.514;55.904;2022-08-26T00:53:59;53815.19;;;-149.77;45.80
60055;BME280;45930;53.514;55.904;2022-08-26T00:55:08;54088.88;;;-149.77;46.01
60055;BME280;45930;53.514;55.904;2022-08-26T00:57:16;54120.59;;;-149.77;46.03
60055;BME280;45930;53.514;55.904;2022-08-26T00:58:18;53848.91;;;-149.77;45.96
60055;BME280;45930;53.514;55.904;2022-08-26T00:59:20;53922.28;;;-149.77;45.97
60055;BME280;45930;53.514;55.904;2022-08-26T01:00:24;54316.94;;;-149.77;46.08
60055;BME280;45930;53.514;55.904;2022-08-26T01:01:26;54820.75;;;-149.77;46.33
60055;BME280;45930;53.514;55.904;2022-08-26T01:02:27;55249.22;;;-149.77;46.35
60055;BME280;45930;53.514;55.904;2022-08-26T01:03:31;55493.25;;;-149.77;46.54
60055;BME280;45930;53.514;55.904;2022-08-26T01:04:35;56082.50;;;-149.77;46.70
60055;BME280;45930;53.514;55.904;2022-08-26T01:05:40;56024.97;;;-149.77;46.64
60055;BME280;45930;53.514;55.904;2022-08-26T01:06:41;55421.81;;;-149.77;46.51
60055;BME280;45930;53.514;55.904;2022-08-26T01:07:42;55473.41;;;-149.77;46.54
60055;BME280;45930;53.514;55.904;2022-08-26T01:08:43;55667.81;;;-149.77;46.54
60055;BME280;45930;53.514;55.904;2022-08-26T01:09:45;55610.28;;;-149.77;46.54
60055;BME280;45930;53.514;55.904;2022-08-26T01:10:45;55852.34;;;-149.77;46.61
60055;BME280;45930;53.514;55.904;2022-08-26T01:11:48;55840.44;;;-149.77;46.62
60055;BME280;45930;53.514;55.904;2022-08-26T01:13:03;55681.72;;;-149.77;46.56
60055;BME280;45930;53.514;55.904;2022-08-26T01:14:06;55604.34;;;-149.77;46.53
60055;BME280;45930;53.514;55.904;2022-08-26T01:15:09;55205.56;;;-149.77;46.46
60055;BME280;45930;53.514;55.904;2022-08-26T01:16:13;54594.63;;;-149.77;46.31
60055;BME280;45930;53.514;55.904;2022-08-26T01:17:15;55023.06;;;-149.77;46.35
60055;BME280;45930;53.514;55.904;2022-08-26T01:18:17;55638.06;;;-149.77;46.58
60055;BME280;45930;53.514;55.904;2022-08-26T01:19:22;55816.63;;;-149.77;46.62
60055;BME280;45930;53.514;55.904;2022-08-26T01:20:46;55604.34;;;-149.77;46.50
60055;BME280;45930;53.514;55.904;2022-08-26T01:22:13;55058.78;;;-149.77;46.42
60055;BME280;45930;53.514;55.904;2022-08-26T01:23:17;55247.25;;;-149.77;46.46
60055;BME280;45930;53.514;55.904;2022-08-26T01:24:18;55148.06;;;-149.77;46.44
60055;BME280;45930;53.514;55.904;2022-08-26T01:25:20;55146.06;;;-149.77;46.42
60055;BME280;45930;53.514;55.904;2022-08-26T01:26:24;54852.47;;;-149.77;46.39
60055;BME280;45930;53.514;55.904;2022-08-26T01:27:27;54420.09;;;-149.77;46.26
60055;BME280;45930;53.514;55.904;2022-08-26T01:28:33;53936.16;;;-149.77;46.06
60055;BME280;45930;53.514;55.904;2022-08-26T01:29:54;53821.16;;;-149.77;45.93
60055;BME280;45930;53.514;55.904;2022-08-26T01:30:55;54005.59;;;-149.77;46.08
60055;BME280;45930;53.514;55.904;2022-08-26T01:31:57;54078.97;;;-149.77;46.12
60055;BME280;45930;53.514;55.904;2022-08-26T01:33:00;54039.28;;;-149.77;46.08
60055;BME280;45930;53.514;55.904;2022-08-26T01:34:11;53831.06;;;-149.77;46.04
60055;BME280;45930;53.514;55.904;2022-08-26T01:35:15;53555.44;;;-149.77;45.90
60055;BME280;45930;53.514;55.904;2022-08-26T01:36:16;53844.94;;;-149.77;46.03
60055;BME280;45930;53.514;55.904;2022-08-26T01:37:27;54368.50;;;-149.77;46.26
60055;BME280;45930;53.514;55.904;2022-08-26T01:38:29;54614.47;;;-149.77;46.28
60055;BME280;45930;53.514;55.904;2022-08-26T01:39:33;55092.50;;;-149.77;46.49
60055;BME280;45930;53.514;55.904;2022-08-26T01:40:36;55221.44;;;-149.77;46.41
60055;BME280;45930;53.514;55.904;2022-08-26T01:41:38;55245.25;;;-149.77;46.46
60055;BME280;45930;53.514;55.904;2022-08-26T01:42:40;54646.19;;;-149.77;46.31
60055;BME280;45930;53.514;55.904;2022-08-26T01:43:44;54590.66;;;-149.77;46.30
60055;BME280;45930;53.514;55.904;2022-08-26T01:45:13;54455.78;;;-149.77;46.19
60055;BME280;45930;53.514;55.904;2022-08-26T01:46:13;54481.56;;;-149.77;46.23
60055;BME280;45930;53.514;55.904;2022-08-26T01:47:16;54985.38;;;-149.77;46.41
60055;BME280;45930;53.514;55.904;2022-08-26T01:48:21;55330.56;;;-149.77;46.57
60055;BME280;45930;53.514;55.904;2022-08-26T01:49:25;56015.03;;;-149.77;46.69
60055;BME280;45930;53.514;55.904;2022-08-26T01:50:29;56271.00;;;-149.77;46.83
60055;BME280;45930;53.514;55.904;2022-08-26T01:51:32;56951.69;;;-149.77;46.95
60055;BME280;45930;53.514;55.904;2022-08-26T01:52:38;57696.00;;;-149.77;47.10
60055;BME280;45930;53.514;55.904;2022-08-26T01:53:41;58023.53;;;-149.77;47.14
60055;BME280;45930;53.514;55.904;2022-08-26T01:54:42;58498.03;;;-149.77;47.20
60055;BME280;45930;53.514;55.904;2022-08-26T01:55:46;58559.56;;;-149.77;47.22
60055;BME280;45930;53.514;55.904;2022-08-26T01:56:49;58077.13;;;-149.77;47.08
60055;BME280;45930;53.514;55.904;2022-08-26T01:57:54;57003.28;;;-149.77;47.08
60055;BME280;45930;53.514;55.904;2022-08-26T01:58:57;57455.81;;;-149.77;47.08
60055;BME280;45930;53.514;55.904;2022-08-26T02:00:03;58420.59;;;-149.77;47.18
60055;BME280;45930;53.514;55.904;2022-08-26T02:01:05;58426.53;;;-149.77;47.16
60055;BME280;45930;53.514;55.904;2022-08-26T02:02:06;58772.03;;;-149.77;47.26
60055;BME280;45930;53.514;55.904;2022-08-26T02:03:06;58690.59;;;-149.77;47.13
60055;BME280;45930;53.514;55.904;2022-08-26T02:05:19;57054.88;;;-149.77;46.79
60055;BME280;45930;53.514;55.904;2022-08-26T02:06:21;57058.84;;;-149.77;46.85
60055;BME280;45930;53.514;55.904;2022-08-26T02:07:23;56751.25;;;-149.77;46.77
60055;BME280;45930;53.514;55.904;2022-08-26T02:08:29;55899.97;;;-149.77;46.51
60055;BME280;45930;53.514;55.904;2022-08-26T02:09:32;55407.94;;;-149.77;46.44
60055;BME280;45930;53.514;55.904;2022-08-26T02:10:36;55229.38;;;-149.77;46.35
60055;BME280;45930;53.514;55.904;2022-08-26T02:11:37;55185.75;;;-149.77;46.44
60055;BME280;45930;53.514;55.904;2022-08-26T02:12:38;54872.31;;;-149.77;46.30
60055;BME280;45930;53.514;55.904;2022-08-26T02:13:54;54348.69;;;-149.77;46.07
60055;BME280;45930;53.514;55.904;2022-08-26T02:14:59;54092.84;;;-149.77;46.06
60055;BME280;45930;53.514;55.904;2022-08-26T02:16:01;53957.97;;;-149.77;45.98
60055;BME280;45930;53.514;55.904;2022-08-26T02:17:03;53662.50;;;-149.77;45.88
60055;BME280;45930;53.514;55.904;2022-08-26T02:18:07;52950.69;;;-149.77;45.54
60055;BME280;45930;53.514;55.904;2022-08-26T02:19:14;52461.00;;;-149.77;45.29
60055;BME280;45930;53.514;55.904;2022-08-26T02:20:18;52193.38;;;-149.77;45.08
60055;BME280;45930;53.514;55.904;2022-08-26T02:21:19;52106.16;;;-149.77;45.08
60055;BME280;45930;53.514;55.904;2022-08-26T02:22:21;52131.94;;;-149.77;45.02
60055;BME280;45930;53.514;55.904;2022-08-26T02:23:22;52044.72;;;-149.77;44.91
60055;BME280;45930;53.514;55.904;2022-08-26T02:24:27;51995.16;;;-149.77;44.81
60055;BME280;45930;53.514;55.904;2022-08-26T02:25:37;51931.72;;;-149.77;44.88
60055;BME280;45930;53.514;55.904;2022-08-26T02:26:41;51975.34;;;-149.77;44.84
60055;BME280;45930;53.514;55.904;2022-08-26T02:27:42;51999.13;;;-149.77;44.91
60055;BME280;45930;53.514;55.904;2022-08-26T02:29:58;52165.63;;;-149.77;44.93
60055;BME280;45930;53.514;55.904;2022-08-26T02:30:59;52312.31;;;-149.77;45.02
60055;BME280;45930;53.514;55.904;2022-08-26T02:32:06;52492.72;;;-149.77;45.13
60055;BME280;45930;53.514;55.904;2022-08-26T02:33:08;52536.31;;;-149.77;45.12
60055;BME280;45930;53.514;55.904;2022-08-26T02:34:11;52623.56;;;-149.77;45.15
60055;BME280;45930;53.514;55.904;2022-08-26T02:35:14;52778.19;;;-149.77;45.29
60055;BME280;45930;53.514;55.904;2022-08-26T02:36:25;52958.59;;;-149.77;45.26
60055;BME280;45930;53.514;55.904;2022-08-26T02:37:29;53238.16;;;-149.77;45.48
60055;BME280;45930;53.514;55.904;2022-08-26T02:38:30;53281.78;;;-149.77;45.43
60055;BME280;45930;53.514;55.904;2022-08-26T02:39:33;53593.09;;;-149.77;45.52
60055;BME280;45930;53.514;55.904;2022-08-26T02:40:37;53827.09;;;-149.77;45.65
60055;BME280;45930;53.514;55.904;2022-08-26T02:41:40;53995.66;;;-149.77;45.74
60055;BME280;45930;53.514;55.904;2022-08-26T02:42:41;54172.16;;;-149.77;45.74
60055;BME280;45930;53.514;55.904;2022-08-26T02:43:42;54420.09;;;-149.77;45.79
60055;BME280;45930;53.514;55.904;2022-08-26T02:44:43;54122.59;;;-149.77;45.61
60055;BME280;45930;53.514;55.904;2022-08-26T02:45:44;54457.78;;;-149.77;45.86
60055;BME280;45930;53.514;55.904;2022-08-26T02:46:45;54479.59;;;-149.77;45.70
60055;BME280;45930;53.514;55.904;2022-08-26T02:47:47;54449.84;;;-149.77;45.67
60055;BME280;45930;53.514;55.904;2022-08-26T02:48:48;54606.53;;;-149.77;45.76
60055;BME280;45930;53.514;55.904;2022-08-26T02:49:49;55292.88;;;-149.77;45.96
60055;BME280;45930;53.514;55.904;2022-08-26T02:50:50;55757.09;;;-149.77;45.91
60055;BME280;45930;53.514;55.904;2022-08-26T02:51:51;56356.34;;;-149.77;46.19
60055;BME280;45930;53.514;55.904;2022-08-26T02:52:52;57124.34;;;-149.77;46.44
60055;BME280;45930;53.514;55.904;2022-08-26T02:53:53;57757.53;;;-149.77;46.34
60055;BME280;45930;53.514;55.904;2022-08-26T02:54:54;58432.50;;;-149.77;46.56
60055;BME280;45930;53.514;55.904;2022-08-26T02:55:55;58331.25;;;-149.77;46.44
60055;BME280;45930;53.514;55.904;2022-08-26T02:56:56;58599.28;;;-149.77;46.59
60055;BME280;45930;53.514;55.904;2022-08-26T02:57:57;58944.75;;;-149.77;46.65
60055;BME280;45930;53.514;55.904;2022-08-26T02:58:58;59034.13;;;-149.77;46.66
60055;BME280;45930;53.514;55.904;2022-08-26T02:59:59;59343.91;;;-149.77;46.53
60055;BME280;45930;53.514;55.904;2022-08-26T03:01:01;59258.50;;;-149.77;46.69
60055;BME280;45930;53.514;55.904;2022-08-26T03:02:03;59206.88;;;-149.77;46.39
60055;BME280;45930;53.514;55.904;2022-08-26T03:03:04;58891.16;;;-149.77;46.46
60055;BME280;45930;53.514;55.904;2022-08-26T03:04:08;58462.28;;;-149.77;46.26
60055;BME280;45930;53.514;55.904;2022-08-26T03:05:10;57545.13;;;-149.77;46.30
60055;BME280;45930;53.514;55.904;2022-08-26T03:06:11;57638.44;;;-149.77;46.10
60055;BME280;45930;53.514;55.904;2022-08-26T03:07:12;57594.75;;;-149.77;46.00
60055;BME280;45930;53.514;55.904;2022-08-26T03:08:12;57384.34;;;-149.77;46.19
60055;BME280;45930;53.514;55.904;2022-08-26T03:09:13;57209.69;;;-149.77;46.02
60055;BME280;45930;53.514;55.904;2022-08-26T03:10:15;57308.94;;;-149.77;46.05
60055;BME280;45930;53.514;55.904;2022-08-26T03:11:16;57074.72;;;-149.77;45.76
60055;BME280;45930;53.514;55.904;2022-08-26T03:12:18;56826.66;;;-149.77;45.94
60055;BME280;45930;53.514;55.904;2022-08-26T03:13:19;56461.50;;;-149.77;45.72
60055;BME280;45930;53.514;55.904;2022-08-26T03:14:21;56265.06;;;-149.77;45.56
60055;BME280;45930;53.514;55.904;2022-08-26T03:15:23;56146.00;;;-149.77;45.52
60055;BME280;45930;53.514;55.904;2022-08-26T03:16:24;55969.41;;;-149.77;45.50
60055;BME280;45930;53.514;55.904;2022-08-26T03:17:24;55798.78;;;-149.77;45.39
60055;BME280;45930;53.514;55.904;2022-08-26T03:18:25;55802.75;;;-149.77;45.44
60055;BME280;45930;53.514;55.904;2022-08-26T03:19:26;55808.69;;;-149.77;45.41
60055;BME280;45930;53.514;55.904;2022-08-26T03:20:26;56030.91;;;-149.77;45.40
60055;BME280;45930;53.514;55.904;2022-08-26T03:21:28;55894.00;;;-149.77;45.31
60055;BME280;45930;53.514;55.904;2022-08-26T03:22:29;55505.13;;;-149.77;45.31
60055;BME280;45930;53.514;55.904;2022-08-26T03:23:30;55532.91;;;-149.77;45.29
60055;BME280;45930;53.514;55.904;2022-08-26T03:24:31;55812.66;;;-149.77;45.28
60055;BME280;45930;53.514;55.904;2022-08-26T03:25:32;56957.63;;;-149.77;45.51
60055;BME280;45930;53.514;55.904;2022-08-26T03:26:34;58122.78;;;-149.77;45.57
60055;BME280;45930;53.514;55.904;2022-08-26T03:27:35;58488.09;;;-149.77;45.76
60055;BME280;45930;53.514;55.904;2022-08-26T03:28:36;58039.41;;;-149.77;45.73
60055;BME280;45930;53.514;55.904;2022-08-26T03:29:58;57610.63;;;-149.77;45.60
60055;BME280;45930;53.514;55.904;2022-08-26T03:31:18;57721.78;;;-149.77;45.51
60055;BME280;45930;53.514;55.904;2022-08-26T03:32:18;57630.50;;;-149.77;45.53
60055;BME280;45930;53.514;55.904;2022-08-26T03:33:20;56933.81;;;-149.77;45.45
60055;BME280;45930;53.514;55.904;2022-08-26T03:34:22;56370.22;;;-149.77;45.17
60055;BME280;45930;53.514;55.904;2022-08-26T03:35:23;55894.00;;;-149.77;44.96
60055;BME280;45930;53.514;55.904;2022-08-26T03:36:25;55179.78;;;-149.77;44.96
60055;BME280;45930;53.514;55.904;2022-08-26T03:37:26;54878.28;;;-149.77;44.73
60055;BME280;45930;53.514;55.904;2022-08-26T03:38:27;55167.88;;;-149.77;44.81
60055;BME280;45930;53.514;55.904;2022-08-26T03:39:28;54289.19;;;-149.77;44.53
60055;BME280;45930;53.514;55.904;2022-08-26T03:40:29;54049.22;;;-149.77;44.29
60055;BME280;45930;53.514;55.904;2022-08-26T03:41:34;53597.06;;;-149.77;44.15
60055;BME280;45930;53.514;55.904;2022-08-26T03:42:37;53490.00;;;-149.77;44.03
60055;BME280;45930;53.514;55.904;2022-08-26T03:43:39;53154.91;;;-149.77;43.80
60055;BME280;45930;53.514;55.904;2022-08-26T03:44:40;52365.84;;;-149.77;43.44
60055;BME280;45930;53.514;55.904;2022-08-26T03:45:41;52425.31;;;-149.77;43.53
60055;BME280;45930;53.514;55.904;2022-08-26T03:46:43;52502.63;;;-149.77;43.48
60055;BME280;45930;53.514;55.904;2022-08-26T03:47:44;52328.19;;;-149.77;43.33
60055;BME280;45930;53.514;55.904;2022-08-26T03:48:45;52199.31;;;-149.77;43.15
60055;BME280;45930;53.514;55.904;2022-08-26T03:49:46;51836.59;;;-149.77;42.83
60055;BME280;45930;53.514;55.904;2022-08-26T03:50:47;51729.56;;;-149.77;42.74
60055;BME280;45930;53.514;55.904;2022-08-26T03:51:48;51719.66;;;-149.77;42.78
60055;BME280;45930;53.514;55.904;2022-08-26T03:52:51;51765.22;;;-149.77;42.71
60055;BME280;45930;53.514;55.904;2022-08-26T03:53:52;51644.34;;;-149.77;42.65
60055;BME280;45930;53.514;55.904;2022-08-26T03:54:53;51584.88;;;-149.77;42.45
60055;BME280;45930;53.514;55.904;2022-08-26T03:55:54;51509.56;;;-149.77;42.47
60055;BME280;45930;53.514;55.904;2022-08-26T03:56:55;51456.03;;;-149.77;42.27
60055;BME280;45930;53.514;55.904;2022-08-26T03:57:56;51430.28;;;-149.77;42.40
60055;BME280;45930;53.514;55.904;2022-08-26T03:58:56;51263.81;;;-149.77;42.17
60055;BME280;45930;53.514;55.904;2022-08-26T03:59:58;51247.94;;;-149.77;42.06
60055;BME280;45930;53.514;55.904;2022-08-26T04:00:59;51144.91;;;-149.77;41.96
60055;BME280;45930;53.514;55.904;2022-08-26T04:02:00;51067.63;;;-149.77;41.84
60055;BME280;45930;53.514;55.904;2022-08-26T04:03:01;50970.50;;;-149.77;41.59
60055;BME280;45930;53.514;55.904;2022-08-26T04:04:02;50974.47;;;-149.77;41.54
60055;BME280;45930;53.514;55.904;2022-08-26T04:05:03;51077.53;;;-149.77;41.76
60055;BME280;45930;53.514;55.904;2022-08-26T04:06:05;51031.94;;;-149.77;41.61
60055;BME280;45930;53.514;55.904;2022-08-26T04:07:05;51026.00;;;-149.77;41.73
60055;BME280;45930;53.514;55.904;2022-08-26T04:08:06;50861.53;;;-149.77;41.32
60055;BME280;45930;53.514;55.904;2022-08-26T04:09:13;50903.13;;;-149.77;41.51
60055;BME280;45930;53.514;55.904;2022-08-26T04:10:16;50913.03;;;-149.77;41.14
60055;BME280;45930;53.514;55.904;2022-08-26T04:11:23;50754.53;;;-149.77;40.99
60055;BME280;45930;53.514;55.904;2022-08-26T04:12:25;50716.88;;;-149.77;40.92
60055;BME280;45930;53.514;55.904;2022-08-26T04:13:29;50675.25;;;-149.77;41.00
60055;BME280;45930;53.514;55.904;2022-08-26T04:14:30;50681.19;;;-149.77;40.84
60055;BME280;45930;53.514;55.904;2022-08-26T04:15:31;50695.06;;;-149.77;40.69
60055;BME280;45930;53.514;55.904;2022-08-26T04:16:33;50627.69;;;-149.77;40.71
60055;BME280;45930;53.514;55.904;2022-08-26T04:17:33;50574.19;;;-149.77;40.58
60055;BME280;45930;53.514;55.904;2022-08-26T04:18:34;50588.06;;;-149.77;40.71
60055;BME280;45930;53.514;55.904;2022-08-26T04:19:37;50590.06;;;-149.77;40.64
60055;BME280;45930;53.514;55.904;2022-08-26T04:20:41;50617.78;;;-149.77;40.76
60055;BME280;45930;53.514;55.904;2022-08-26T04:21:43;50605.91;;;-149.77;40.64
60055;BME280;45930;53.514;55.904;2022-08-26T04:22:44;50629.69;;;-149.77;40.47
60055;BME280;45930;53.514;55.904;2022-08-26T04:23:46;50597.97;;;-149.77;40.47
60055;BME280;45930;53.514;55.904;2022-08-26T04:24:47;50477.13;;;-149.77;40.42
60055;BME280;45930;53.514;55.904;2022-08-26T04:25:47;50405.78;;;-149.77;40.30
60055;BME280;45930;53.514;55.904;2022-08-26T04:26:49;50475.13;;;-149.77;40.11
60055;BME280;45930;53.514;55.904;2022-08-26T04:27:51;50413.72;;;-149.77;40.23
60055;BME280;45930;53.514;55.904;2022-08-26T04:28:53;50362.19;;;-149.77;39.96
60055;BME280;45930;53.514;55.904;2022-08-26T04:29:54;50443.44;;;-149.77;40.13
60055;BME280;45930;53.514;55.904;2022-08-26T04:30:56;50532.59;;;-149.77;40.28
60055;BME280;45930;53.514;55.904;2022-08-26T04:31:57;50364.19;;;-149.77;39.78
60055;BME280;45930;53.514;55.904;2022-08-26T04:32:58;50389.94;;;-149.77;39.92
60055;BME280;45930;53.514;55.904;2022-08-26T04:33:59;50403.81;;;-149.77;40.07
60055;BME280;45930;53.514;55.904;2022-08-26T04:35:00;50267.09;;;-149.77;39.60
60055;BME280;45930;53.514;55.904;2022-08-26T04:36:02;50237.38;;;-149.77;39.38
60055;BME280;45930;53.514;55.904;2022-08-26T04:37:07;50271.06;;;-149.77;39.44
60055;BME280;45930;53.514;55.904;2022-08-26T04:38:07;50296.81;;;-149.77;39.54
60055;BME280;45930;53.514;55.904;2022-08-26T04:39:10;50292.84;;;-149.77;39.71
60055;BME280;45930;53.514;55.904;2022-08-26T04:40:17;50328.50;;;-149.77;39.78
60055;BME280;45930;53.514;55.904;2022-08-26T04:41:20;50259.16;;;-149.77;39.55
60055;BME280;45930;53.514;55.904;2022-08-26T04:42:21;50211.63;;;-149.77;39.28
60055;BME280;45930;53.514;55.904;2022-08-26T04:43:23;50098.69;;;-149.77;39.13
60055;BME280;45930;53.514;55.904;2022-08-26T04:44:29;50170.00;;;-149.77;39.25
60055;BME280;45930;53.514;55.904;2022-08-26T04:45:35;50217.56;;;-149.77;39.26
60055;BME280;45930;53.514;55.904;2022-08-26T04:46:36;50215.56;;;-149.77;39.20
60055;BME280;45930;53.514;55.904;2022-08-26T04:47:37;50215.56;;;-149.77;39.36
60055;BME280;45930;53.514;55.904;2022-08-26T04:48:38;50138.31;;;-149.77;39.08
60055;BME280;45930;53.514;55.904;2022-08-26T04:49:40;50092.75;;;-149.77;39.07
60055;BME280;45930;53.514;55.904;2022-08-26T04:50:41;50179.91;;;-149.77;39.12
60055;BME280;45930;53.514;55.904;2022-08-26T04:51:42;50158.13;;;-149.77;39.02
60055;BME280;45930;53.514;55.904;2022-08-26T04:52:43;50134.34;;;-149.77;39.02
60055;BME280;45930;53.514;55.904;2022-08-26T04:53:44;50108.59;;;-149.77;38.83
60055;BME280;45930;53.514;55.904;2022-08-26T04:54:45;50132.38;;;-149.77;39.00
60055;BME280;45930;53.514;55.904;2022-08-26T04:55:46;50181.91;;;-149.77;38.88
60055;BME280;45930;53.514;55.904;2022-08-26T04:56:47;50005.56;;;-149.77;38.40
60055;BME280;45930;53.514;55.904;2022-08-26T04:57:51;50047.16;;;-149.77;38.52
60055;BME280;45930;53.514;55.904;2022-08-26T04:58:52;49985.75;;;-149.77;38.41
60055;BME280;45930;53.514;55.904;2022-08-26T04:59:53;50051.13;;;-149.77;38.36
60055;BME280;45930;53.514;55.904;2022-08-26T05:00:55;49950.09;;;-149.77;38.06
60055;BME280;45930;53.514;55.904;2022-08-26T05:01:56;50025.38;;;-149.77;38.29
60055;BME280;45930;53.514;55.904;2022-08-26T05:03:00;50074.91;;;-149.77;38.59
60055;BME280;45930;53.514;55.904;2022-08-26T05:04:01;49989.72;;;-149.77;37.92
60055;BME280;45930;53.514;55.904;2022-08-26T05:05:02;49906.50;;;-149.77;37.86
60055;BME280;45930;53.514;55.904;2022-08-26T05:06:05;49924.34;;;-149.77;37.69
60055;BME280;45930;53.514;55.904;2022-08-26T05:07:05;49936.22;;;-149.77;37.76
60055;BME280;45930;53.514;55.904;2022-08-26T05:08:12;49926.31;;;-149.77;37.61
60055;BME280;45930;53.514;55.904;2022-08-26T05:09:14;49876.78;;;-149.77;37.58
60055;BME280;45930;53.514;55.904;2022-08-26T05:10:18;49884.72;;;-149.77;37.61
60055;BME280;45930;53.514;55.904;2022-08-26T05:11:19;49884.72;;;-149.77;37.36
60055;BME280;45930;53.514;55.904;2022-08-26T05:12:20;49833.22;;;-149.77;37.28
60055;BME280;45930;53.514;55.904;2022-08-26T05:13:25;49860.94;;;-149.77;37.33
60055;BME280;45930;53.514;55.904;2022-08-26T05:14:26;49862.94;;;-149.77;37.28
60055;BME280;45930;53.514;55.904;2022-08-26T05:15:27;49853.03;;;-149.77;37.28
60055;BME280;45930;53.514;55.904;2022-08-26T05:16:28;49868.88;;;-149.77;37.28
60055;BME280;45930;53.514;55.904;2022-08-26T05:17:29;49835.19;;;-149.77;36.90
60055;BME280;45930;53.514;55.904;2022-08-26T05:18:31;49801.50;;;-149.77;36.85
60055;BME280;45930;53.514;55.904;2022-08-26T05:19:33;49795.56;;;-149.77;36.73
60055;BME280;45930;53.514;55.904;2022-08-26T05:20:39;49801.50;;;-149.77;36.71
60055;BME280;45930;53.514;55.904;2022-08-26T05:21:41;49821.31;;;-149.77;36.81
60055;BME280;45930;53.514;55.904;2022-08-26T05:22:42;49750.00;;;-149.77;36.41